createdAt,value
2022-11-27T00:01:59.726Z,31.65
2022-11-27T00:04:47.747Z,38.67
2022-11-27T00:07:21.761Z,42.45
2022-11-27T00:10:09.716Z,45.88
2022-11-27T00:12:50.724Z,43.35
2022-11-27T00:15:38.794Z,72.60
2022-11-27T00:18:19.714Z,49.13
2022-11-27T00:21:07.747Z,34.05
2022-11-27T00:23:43.006Z,41.22
2022-11-27T00:26:23.714Z,41.10
2022-11-27T00:29:04.737Z,38.67
2022-11-27T00:31:39.008Z,40.83
2022-11-27T00:34:26.748Z,50.42
2022-11-27T00:37:06.733Z,38.45
2022-11-27T00:39:47.842Z,28.80
2022-11-27T00:42:27.746Z,36.53
2022-11-27T00:45:08.811Z,25.95
2022-11-27T00:47:48.768Z,32.47
2022-11-27T00:50:38.748Z,49.33
2022-11-27T00:53:12.646Z,44.88
2022-11-27T00:56:00.727Z,40.40
2022-11-27T00:58:35.060Z,36.55
2022-11-27T01:01:22.787Z,33.33
2022-11-27T01:04:03.746Z,36.50
2022-11-27T01:06:44.827Z,43.17
2022-11-27T01:09:25.732Z,209.25
2022-11-27T01:12:06.774Z,133.25
2022-11-27T01:14:47.735Z,68.30
2022-11-27T01:17:28.784Z,54.00
2022-11-27T01:20:09.744Z,50.20
2022-11-27T01:22:50.816Z,62.50
2022-11-27T01:25:30.751Z,47.63
2022-11-27T01:28:11.830Z,50.08
2022-11-27T01:30:51.862Z,30.13
2022-11-27T01:33:32.865Z,19.90
2022-11-27T01:36:14.742Z,25.42
2022-11-27T01:39:02.754Z,37.78
2022-11-27T01:41:39.935Z,27.40
2022-11-27T01:44:40.017Z,31.67
2022-11-27T01:47:16.254Z,20.03
2022-11-27T01:50:13.727Z,24.67
2022-11-27T01:53:09.726Z,16.90
2022-11-27T01:55:58.740Z,13.57
2022-11-27T01:58:40.738Z,17.60
2022-11-27T02:01:34.856Z,30.50
2022-11-27T02:04:22.753Z,17.00
2022-11-27T02:07:03.774Z,18.20
2022-11-27T02:09:57.730Z,16.33
2022-11-27T02:13:09.743Z,20.20
2022-11-27T02:15:52.867Z,21.73
2022-11-27T02:18:44.756Z,11.80
2022-11-27T02:21:29.751Z,14.55
2022-11-27T02:24:26.715Z,10.35
2022-11-27T02:27:32.738Z,12.75
2022-11-27T02:30:15.775Z,19.00
2022-11-27T02:33:10.773Z,13.13
2022-11-27T02:35:53.890Z,15.88
2022-11-27T02:39:01.759Z,8.02
2022-11-27T02:41:44.780Z,9.90
2022-11-27T02:44:43.749Z,10.25
2022-11-27T02:47:31.748Z,7.82
2022-11-27T02:50:13.762Z,7.78
2022-11-27T02:52:56.687Z,6.30
2022-11-27T02:55:47.737Z,6.23
2022-11-27T02:58:23.243Z,6.78
2022-11-27T03:01:10.796Z,4.90
2022-11-27T03:03:46.743Z,6.85
2022-11-27T03:06:46.764Z,2.17
2022-11-27T03:09:30.092Z,9.10
2022-11-27T03:12:19.826Z,9.10
2022-11-27T03:17:53.770Z,4.35
2022-11-27T03:20:43.729Z,4.07
2022-11-27T03:23:31.766Z,5.85
2022-11-27T03:26:12.750Z,5.40
2022-11-27T03:29:01.744Z,4.68
2022-11-27T03:31:42.805Z,3.90
2022-11-27T03:34:30.758Z,4.57
2022-11-27T03:37:05.215Z,5.35
2022-11-27T03:39:52.769Z,7.03
2022-11-27T03:43:01.714Z,3.40
2022-11-27T03:46:21.771Z,4.20
2022-11-27T03:49:16.739Z,4.43
2022-11-27T03:52:23.726Z,5.95
2022-11-27T03:55:23.734Z,7.28
2022-11-27T03:58:03.821Z,4.50
2022-11-27T04:00:51.729Z,6.47
2022-11-27T04:03:30.873Z,6.55
2022-11-27T04:06:18.820Z,5.13
2022-11-27T04:08:55.828Z,5.35
2022-11-27T04:11:43.736Z,6.88
2022-11-27T04:14:24.764Z,5.82
2022-11-27T04:17:18.808Z,6.55
2022-11-27T04:20:06.753Z,6.45
2022-11-27T04:22:40.817Z,9.77
2022-11-27T04:25:28.801Z,5.85
2022-11-27T04:28:02.788Z,10.68
2022-11-27T04:30:50.760Z,7.25
2022-11-27T04:33:24.798Z,8.25
2022-11-27T04:36:12.750Z,11.35
2022-11-27T04:38:53.741Z,9.95
2022-11-27T04:41:47.751Z,10.82
2022-11-27T04:44:34.748Z,11.88
2022-11-27T04:47:08.820Z,11.73
2022-11-27T04:49:56.762Z,10.38
2022-11-27T04:52:30.838Z,11.77
2022-11-27T04:55:18.763Z,15.73
2022-11-27T04:57:52.815Z,14.00
2022-11-27T05:00:39.777Z,16.95
2022-11-27T05:03:27.776Z,15.13
2022-11-27T05:06:01.706Z,16.08
2022-11-27T05:08:49.796Z,15.07
2022-11-27T05:11:23.703Z,12.27
2022-11-27T05:14:24.753Z,13.05
2022-11-27T05:17:12.768Z,14.65
2022-11-27T05:19:59.739Z,15.90
2022-11-27T05:22:33.842Z,12.95
2022-11-27T05:25:20.743Z,11.77
2022-11-27T05:27:54.840Z,14.73
2022-11-27T05:30:41.821Z,17.70
2022-11-27T05:33:15.826Z,18.67
2022-11-27T05:36:03.830Z,18.20
2022-11-27T05:38:37.815Z,12.63
2022-11-27T05:41:24.773Z,15.98
2022-11-27T05:43:58.830Z,14.35
2022-11-27T05:46:46.841Z,16.45
2022-11-27T05:49:28.774Z,19.02
2022-11-27T05:52:22.772Z,16.77
2022-11-27T05:55:10.818Z,13.63
2022-11-27T05:57:51.758Z,17.33
2022-11-27T06:00:45.780Z,13.23
2022-11-27T06:03:33.816Z,15.30
2022-11-27T06:06:22.822Z,14.10
2022-11-27T06:09:16.811Z,17.90
2022-11-27T06:12:04.766Z,15.32
2022-11-27T06:14:45.854Z,28.70
2022-11-27T06:17:25.782Z,23.35
2022-11-27T06:20:13.785Z,18.65
2022-11-27T06:22:54.786Z,17.92
2022-11-27T06:25:35.881Z,19.92
2022-11-27T06:28:15.778Z,19.70
2022-11-27T06:30:56.817Z,24.45
2022-11-27T06:33:37.768Z,21.10
2022-11-27T06:36:18.846Z,23.75
2022-11-27T06:38:59.807Z,17.25
2022-11-27T06:41:47.796Z,21.75
2022-11-27T06:44:22.787Z,23.50
2022-11-27T06:47:10.775Z,17.90
2022-11-27T06:49:51.759Z,23.95
2022-11-27T06:52:37.185Z,17.98
2022-11-27T06:55:21.764Z,19.80
2022-11-27T06:58:09.762Z,23.10
2022-11-27T07:00:50.868Z,28.92
2022-11-27T07:03:31.834Z,24.50
2022-11-27T07:06:12.778Z,16.33
2022-11-27T07:08:53.847Z,17.77
2022-11-27T07:11:41.810Z,16.75
2022-11-27T07:14:15.826Z,16.67
2022-11-27T07:17:02.812Z,20.90
2022-11-27T07:19:36.843Z,23.27
2022-11-27T07:22:23.775Z,22.00
2022-11-27T07:24:57.844Z,26.92
2022-11-27T07:27:45.781Z,21.83
2022-11-27T07:30:32.758Z,21.33
2022-11-27T07:33:19.847Z,15.52
2022-11-27T07:35:53.848Z,16.42
2022-11-27T07:38:41.809Z,18.17
2022-11-27T07:41:22.781Z,19.80
2022-11-27T07:44:10.784Z,20.80
2022-11-27T07:46:51.820Z,21.85
2022-11-27T07:49:38.784Z,24.52
2022-11-27T07:52:13.000Z,22.42
2022-11-27T07:54:59.788Z,20.92
2022-11-27T07:57:40.800Z,23.10
2022-11-27T08:00:34.795Z,14.02
2022-11-27T08:03:22.867Z,12.75
2022-11-27T08:05:57.851Z,13.57
2022-11-27T08:08:44.809Z,15.90
2022-11-27T08:11:26.955Z,21.58
2022-11-27T08:14:14.770Z,18.33
2022-11-27T08:16:55.901Z,22.80
2022-11-27T08:19:49.766Z,28.40
2022-11-27T08:22:36.754Z,22.77
2022-11-27T08:25:17.767Z,19.77
2022-11-27T08:28:11.797Z,23.23
2022-11-27T08:31:03.819Z,20.23
2022-11-27T08:33:38.864Z,28.05
2022-11-27T08:36:25.799Z,30.88
2022-11-27T08:39:06.906Z,27.65
2022-11-27T08:41:53.791Z,33.00
2022-11-27T08:44:27.822Z,18.63
2022-11-27T08:47:15.779Z,20.85
2022-11-27T08:49:50.844Z,18.45
2022-11-27T08:52:38.772Z,16.27
2022-11-27T08:55:19.768Z,21.83
2022-11-27T08:58:13.786Z,17.20
2022-11-27T09:01:01.849Z,24.73
2022-11-27T09:03:35.957Z,24.40
2022-11-27T09:06:25.791Z,22.13
2022-11-27T09:09:06.792Z,58.13
2022-11-27T09:12:00.785Z,32.42
2022-11-27T09:14:47.771Z,13.43
2022-11-27T09:17:21.981Z,23.88
2022-11-27T09:20:08.771Z,17.75
2022-11-27T09:22:42.929Z,23.05
2022-11-27T09:25:29.785Z,23.75
2022-11-27T09:28:03.864Z,22.38
2022-11-27T09:30:51.798Z,27.30
2022-11-27T09:33:32.769Z,23.08
2022-11-27T09:36:31.784Z,22.88
2022-11-27T09:39:20.785Z,20.95
2022-11-27T09:41:59.872Z,21.45
2022-11-27T09:44:52.780Z,18.45
2022-11-27T09:47:38.391Z,19.85
2022-11-27T09:50:43.793Z,22.38
2022-11-27T09:53:28.107Z,23.98
2022-11-27T09:56:18.814Z,26.00
2022-11-27T09:59:01.772Z,27.60
2022-11-27T10:01:51.017Z,35.20
2022-11-27T10:04:30.338Z,13.38
2022-11-27T10:07:38.856Z,28.85
2022-11-27T10:10:18.860Z,19.70
2022-11-27T10:13:32.775Z,27.63
2022-11-27T10:16:26.858Z,17.08
2022-11-27T10:19:19.123Z,16.55
2022-11-27T10:22:10.813Z,21.80
2022-11-27T10:25:15.775Z,26.80
2022-11-27T10:28:33.810Z,16.73
2022-11-27T10:31:12.296Z,19.45
2022-11-27T10:34:07.832Z,21.38
2022-11-27T10:36:50.788Z,18.38
2022-11-27T10:40:14.803Z,20.13
2022-11-27T10:43:10.598Z,16.90
2022-11-27T10:46:22.948Z,19.50
2022-11-27T10:48:56.938Z,17.08
2022-11-27T10:51:50.781Z,23.60
2022-11-27T10:54:29.233Z,21.90
2022-11-27T10:57:34.799Z,18.25
2022-11-27T11:00:29.836Z,14.20
2022-11-27T11:03:14.781Z,20.98
2022-11-27T11:06:20.644Z,19.90
2022-11-27T11:09:13.786Z,20.95
2022-11-27T11:11:54.826Z,21.60
2022-11-27T11:14:35.828Z,28.40
2022-11-27T11:17:23.883Z,17.40
2022-11-27T11:19:57.847Z,24.80
2022-11-27T11:22:52.858Z,24.20
2022-11-27T11:25:34.811Z,32.70
2022-11-27T11:28:38.031Z,20.13
2022-11-27T11:31:27.873Z,19.80
2022-11-27T11:34:07.926Z,29.23
2022-11-27T11:37:09.804Z,30.48
2022-11-27T11:39:56.831Z,23.90
2022-11-27T11:42:51.796Z,22.25
2022-11-27T11:45:40.859Z,21.20
2022-11-27T11:48:41.818Z,23.00
2022-11-27T11:51:20.156Z,30.73
2022-11-27T11:54:35.797Z,23.10
2022-11-27T11:57:16.796Z,22.95
2022-11-27T12:00:07.839Z,28.70
2022-11-27T12:03:01.990Z,25.30
2022-11-27T12:06:21.826Z,30.13
2022-11-27T12:09:03.952Z,26.45
2022-11-27T12:11:51.806Z,21.02
2022-11-27T12:14:26.924Z,43.15
2022-11-27T12:17:16.796Z,57.00
2022-11-27T12:19:56.833Z,109.78
2022-11-27T12:22:44.926Z,32.53
2022-11-27T12:25:43.838Z,48.35
2022-11-27T12:28:58.814Z,24.60
2022-11-27T12:31:48.152Z,55.38
2022-11-27T12:34:35.830Z,76.85
2022-11-27T12:37:28.815Z,45.05
2022-11-27T12:40:15.875Z,20.90
2022-11-27T12:42:56.795Z,20.85
2022-11-27T12:45:52.817Z,18.70
2022-11-27T12:49:00.836Z,17.70
2022-11-27T12:52:03.792Z,18.05
2022-11-27T12:54:57.846Z,17.02
2022-11-27T12:57:45.848Z,17.88
2022-11-27T13:00:35.849Z,19.10
2022-11-27T13:03:16.843Z,21.05
2022-11-27T13:06:10.816Z,19.67
2022-11-27T13:08:54.808Z,20.35
2022-11-27T13:11:46.818Z,27.63
2022-11-27T13:14:32.818Z,19.63
2022-11-27T13:17:28.842Z,18.48
2022-11-27T13:20:25.799Z,16.92
2022-11-27T13:23:06.835Z,24.60
2022-11-27T13:25:58.794Z,25.35
2022-11-27T13:28:55.810Z,29.60
2022-11-27T13:31:45.886Z,25.05
2022-11-27T13:37:22.815Z,29.58
2022-11-27T13:40:14.802Z,24.75
2022-11-27T13:43:03.826Z,30.20
2022-11-27T13:45:51.854Z,36.25
2022-11-27T13:48:44.895Z,51.53
2022-11-27T13:51:36.858Z,55.08
2022-11-27T13:54:16.172Z,43.63
2022-11-27T13:57:02.835Z,74.57
2022-11-27T13:59:39.518Z,142.35
2022-11-27T14:02:26.900Z,133.25
2022-11-27T14:05:00.947Z,73.10
2022-11-27T14:07:51.875Z,41.95
2022-11-27T14:10:39.828Z,48.83
2022-11-27T14:13:34.807Z,44.78
2022-11-27T14:16:33.920Z,43.97
2022-11-27T14:19:10.883Z,53.05
2022-11-27T14:21:57.846Z,44.22
2022-11-27T14:24:47.127Z,39.92
2022-11-27T14:27:41.851Z,37.60
2022-11-27T14:30:35.969Z,30.23
2022-11-27T14:33:59.619Z,35.92
2022-11-27T14:36:44.826Z,44.70
2022-11-27T14:39:43.959Z,40.10
2022-11-27T14:42:29.532Z,36.72
2022-11-27T14:45:14.831Z,33.58
2022-11-27T14:47:57.902Z,29.58
2022-11-27T14:50:37.828Z,29.17
2022-11-27T14:53:18.876Z,30.35
2022-11-27T14:56:02.849Z,35.17
2022-11-27T14:58:45.884Z,33.05
2022-11-27T15:01:33.858Z,28.70
2022-11-27T15:04:41.813Z,35.22
2022-11-27T15:07:24.887Z,34.53
2022-11-27T15:10:06.936Z,29.35
2022-11-27T15:12:52.855Z,35.28
2022-11-27T15:15:35.901Z,28.63
2022-11-27T15:18:27.836Z,30.40
2022-11-27T15:21:02.988Z,35.08
2022-11-27T15:23:53.831Z,40.63
2022-11-27T15:26:45.987Z,30.38
2022-11-27T15:29:35.851Z,33.63
2022-11-27T15:32:10.899Z,42.58
2022-11-27T15:34:58.831Z,38.33
2022-11-27T15:37:45.838Z,36.47
2022-11-27T15:40:42.832Z,30.70
2022-11-27T15:43:27.839Z,38.20
2022-11-27T15:46:17.883Z,37.15
2022-11-27T15:51:45.837Z,33.25
2022-11-27T15:54:26.855Z,38.50
2022-11-27T15:57:20.812Z,44.70
2022-11-27T16:00:08.862Z,55.78
2022-11-27T16:02:43.109Z,53.63
2022-11-27T16:05:37.856Z,48.35
2022-11-27T16:08:18.862Z,54.67
2022-11-27T16:11:06.831Z,46.90
2022-11-27T16:13:47.860Z,37.53
2022-11-27T16:16:29.797Z,43.72
2022-11-27T16:19:12.861Z,34.25
2022-11-27T16:21:54.926Z,37.30
2022-11-27T16:24:35.833Z,41.88
2022-11-27T16:27:16.922Z,42.55
2022-11-27T16:30:03.863Z,45.15
2022-11-27T16:32:37.984Z,43.40
2022-11-27T16:35:24.838Z,44.78
2022-11-27T16:37:58.915Z,41.75
2022-11-27T16:40:45.920Z,43.47
2022-11-27T16:43:22.044Z,71.50
2022-11-27T16:46:23.870Z,49.25
2022-11-27T16:49:04.836Z,44.20
2022-11-27T16:51:58.835Z,55.65
2022-11-27T16:54:46.845Z,47.42
2022-11-27T16:57:20.898Z,44.75
2022-11-27T17:00:07.825Z,47.60
2022-11-27T17:02:41.979Z,48.00
2022-11-27T17:05:29.841Z,51.30
2022-11-27T17:08:03.965Z,47.53
2022-11-27T17:10:51.859Z,48.75
2022-11-27T17:13:32.858Z,55.50
2022-11-27T17:16:19.936Z,57.50
2022-11-27T17:18:53.922Z,66.60
2022-11-27T17:21:41.860Z,73.43
2022-11-27T17:24:31.860Z,63.83
2022-11-27T17:27:05.807Z,61.50
2022-11-27T17:29:53.855Z,58.63
2022-11-27T17:32:41.905Z,58.00
2022-11-27T17:35:15.929Z,50.42
2022-11-27T17:38:02.869Z,48.83
2022-11-27T17:40:43.852Z,52.90
2022-11-27T17:43:37.853Z,52.88
2022-11-27T17:46:34.830Z,61.40
2022-11-27T17:49:21.909Z,58.85
2022-11-27T17:52:06.296Z,55.70
2022-11-27T17:54:54.847Z,64.63
2022-11-27T17:57:27.950Z,62.50
2022-11-27T18:00:15.858Z,65.25
2022-11-27T18:02:49.901Z,71.32
2022-11-27T18:05:36.854Z,63.65
2022-11-27T18:08:10.905Z,62.38
2022-11-27T18:10:57.874Z,71.00
2022-11-27T18:13:32.595Z,68.75
2022-11-27T18:16:31.012Z,67.55
2022-11-27T18:19:04.937Z,64.82
2022-11-27T18:21:51.850Z,56.50
2022-11-27T18:24:32.854Z,59.40
2022-11-27T18:27:21.875Z,54.38
2022-11-27T18:29:55.933Z,60.03
2022-11-27T18:32:43.844Z,55.33
2022-11-27T18:35:18.026Z,51.75
2022-11-27T18:38:04.840Z,47.90
2022-11-27T18:40:47.869Z,57.65
2022-11-27T18:43:34.842Z,48.70
2022-11-27T18:46:15.913Z,51.05
2022-11-27T18:49:09.857Z,51.05
2022-11-27T18:51:57.845Z,51.30
2022-11-27T18:54:31.955Z,47.72
2022-11-27T18:57:19.849Z,52.60
2022-11-27T19:00:00.850Z,46.95
2022-11-27T19:02:48.007Z,44.45
2022-11-27T19:05:21.961Z,49.33
2022-11-27T19:08:10.892Z,42.25
2022-11-27T19:10:44.919Z,45.22
2022-11-27T19:13:32.855Z,37.83
2022-11-27T19:16:06.961Z,33.13
2022-11-27T19:18:54.865Z,46.15
2022-11-27T19:21:37.878Z,31.38
2022-11-27T19:24:24.874Z,43.53
2022-11-27T19:27:04.948Z,40.88
2022-11-27T19:29:45.880Z,45.42
2022-11-27T19:32:25.853Z,50.55
2022-11-27T19:35:03.086Z,52.88
2022-11-27T19:37:53.841Z,46.38
2022-11-27T19:40:27.970Z,52.38
2022-11-27T19:43:14.854Z,48.78
2022-11-27T19:45:55.905Z,55.03
2022-11-27T19:48:42.884Z,47.53
2022-11-27T19:51:23.971Z,52.60
2022-11-27T19:54:09.975Z,53.03
2022-11-27T19:56:51.050Z,42.95
2022-11-27T19:59:32.863Z,50.55
2022-11-27T20:02:20.960Z,57.30
2022-11-27T20:04:54.863Z,58.03
2022-11-27T20:07:42.898Z,57.25
2022-11-27T20:10:16.910Z,49.97
2022-11-27T20:13:04.905Z,53.95
2022-11-27T20:15:46.877Z,54.17
2022-11-27T20:18:34.865Z,57.30
2022-11-27T20:21:20.866Z,56.03
2022-11-27T20:24:08.877Z,65.53
2022-11-27T20:26:43.351Z,70.15
2022-11-27T20:29:30.888Z,54.17
2022-11-27T20:32:04.905Z,58.78
2022-11-27T20:34:52.860Z,54.45
2022-11-27T20:37:27.933Z,53.97
2022-11-27T20:40:15.915Z,61.33
2022-11-27T20:42:56.863Z,60.70
2022-11-27T20:45:44.953Z,68.68
2022-11-27T20:48:19.071Z,71.05
2022-11-27T20:51:06.868Z,66.45
2022-11-27T20:53:47.881Z,65.53
2022-11-27T20:56:35.887Z,70.88
2022-11-27T20:59:10.171Z,72.07
2022-11-27T21:01:57.900Z,79.63
2022-11-27T21:04:37.876Z,74.97
2022-11-27T21:07:26.929Z,81.55
2022-11-27T21:10:00.799Z,78.72
2022-11-27T21:12:48.885Z,82.03
2022-11-27T21:15:29.866Z,85.97
2022-11-27T21:18:17.883Z,73.78
2022-11-27T21:21:18.852Z,76.68
2022-11-27T21:24:08.876Z,79.55
2022-11-27T21:26:44.043Z,74.68
2022-11-27T21:29:33.886Z,77.13
2022-11-27T21:34:55.875Z,62.70
2022-11-27T21:37:36.963Z,59.92
2022-11-27T21:40:17.879Z,61.45
2022-11-27T21:43:05.906Z,57.92
2022-11-27T21:45:39.893Z,60.65
2022-11-27T21:48:27.886Z,56.15
2022-11-27T21:51:02.933Z,55.60
2022-11-27T21:53:50.897Z,52.58
2022-11-27T21:56:43.855Z,50.05
2022-11-27T21:59:31.887Z,49.58
2022-11-27T22:02:06.024Z,42.45
2022-11-27T22:05:07.981Z,45.10
2022-11-27T22:08:01.894Z,41.78
2022-11-27T22:10:48.879Z,42.60
2022-11-27T22:13:22.940Z,49.25
2022-11-27T22:16:15.978Z,47.00
2022-11-27T22:18:49.979Z,43.38
2022-11-27T22:21:39.881Z,44.55
2022-11-27T22:24:18.776Z,41.45
2022-11-27T22:27:00.884Z,42.45
2022-11-27T22:29:54.885Z,46.05
2022-11-27T22:32:42.872Z,40.85
2022-11-27T22:35:16.961Z,42.72
2022-11-27T22:38:03.915Z,50.38
2022-11-27T22:40:44.899Z,44.90
2022-11-27T22:43:32.867Z,43.40
2022-11-27T22:46:07.004Z,39.60
2022-11-27T22:48:54.903Z,54.47
2022-11-27T22:51:36.881Z,63.13
2022-11-27T22:54:30.881Z,62.40
2022-11-27T22:57:20.886Z,90.93
2022-11-27T23:02:48.966Z,119.82
2022-11-27T23:05:29.887Z,80.20
2022-11-27T23:08:25.900Z,77.40
2022-11-27T23:11:20.872Z,74.72
2022-11-27T23:14:07.892Z,73.10
2022-11-27T23:16:42.064Z,64.03
2022-11-27T23:19:28.895Z,99.47
2022-11-27T23:22:03.072Z,104.32
2022-11-27T23:24:49.907Z,76.00
2022-11-27T23:27:23.947Z,71.70
2022-11-27T23:30:11.908Z,67.95
2022-11-27T23:32:45.952Z,65.15
2022-11-27T23:35:32.894Z,56.55
2022-11-27T23:38:13.911Z,42.60
2022-11-27T23:41:07.897Z,42.20
2022-11-27T23:43:55.898Z,49.30
2022-11-27T23:46:30.949Z,53.30
2022-11-27T23:49:17.895Z,54.30
2022-11-27T23:51:51.967Z,55.67
2022-11-27T23:54:40.193Z,54.78
2022-11-27T23:57:13.948Z,65.00
